Time;durP1;ratioP1;P1;durP2;ratioP2;P2;SDS_P1;SDS_P2;PMS_P1;PMS_P2;Temp;Humidity;BMP_temperature;BMP_pressure;BME280_temperature;BME280_humidity;BME280_pressure;Samples;Min_cycle;Max_cycle;Signal;HPM_P1;HPM_P2
2022/04/02 00:00:55;;;;;;;29.10;20.88;;;0.00;99.90;;;;;;5033095;28;20029;-72
2022/04/02 00:03:22;;;;;;;31.60;22.92;;;-0.10;99.90;;;;;;5034328;28;20044;-71
2022/04/02 00:05:48;;;;;;;33.85;23.70;;;-0.10;99.90;;;;;;5033149;28;20017;-71
2022/04/02 00:08:14;;;;;;;31.77;21.45;;;0.00;99.90;;;;;;5032290;28;20036;-72
2022/04/02 00:10:39;;;;;;;34.33;23.42;;;0.00;99.90;;;;;;5033696;28;20025;-72
2022/04/02 00:13:05;;;;;;;33.15;22.77;;;-0.10;99.90;;;;;;5049151;28;20033;-72
2022/04/02 00:15:31;;;;;;;33.03;22.02;;;-0.10;99.90;;;;;;5041072;28;20041;-72
2022/04/02 00:17:56;;;;;;;30.27;23.08;;;-0.20;99.90;;;;;;5032883;28;20543;-72
2022/04/02 00:20:22;;;;;;;32.35;22.58;;;-0.20;99.90;;;;;;5040925;28;20040;-72
2022/04/02 00:25:32;;;;;;;34.03;24.33;;;-0.20;99.90;;;;;;5033630;28;20036;-71
2022/04/02 00:27:57;;;;;;;33.92;23.27;;;-0.20;99.90;;;;;;5033085;28;20033;-72
2022/04/02 00:30:23;;;;;;;33.50;22.52;;;-0.10;99.90;;;;;;5038006;28;20032;-71
2022/04/02 00:32:49;;;;;;;32.08;22.95;;;-0.20;99.90;;;;;;5046482;28;20056;-71
2022/04/02 00:35:14;;;;;;;30.77;21.85;;;-0.10;99.90;;;;;;5054149;28;20021;-71
2022/04/02 00:37:41;;;;;;;32.08;21.92;;;-0.10;99.90;;;;;;5053032;28;20454;-71
2022/04/02 00:40:07;;;;;;;31.73;22.13;;;-0.10;99.90;;;;;;5044805;28;20021;-71
2022/04/02 00:42:33;;;;;;;29.65;21.60;;;0.00;99.90;;;;;;5046552;28;20074;-71
2022/04/02 00:44:59;;;;;;;33.33;21.90;;;0.10;99.90;;;;;;5043800;28;20458;-73
2022/04/02 00:47:25;;;;;;;32.95;22.50;;;0.10;99.90;;;;;;5045845;28;20037;-71
2022/04/02 00:49:54;;;;;;;31.80;21.90;;;0.10;99.90;;;;;;5032303;28;20081;-71
2022/04/02 00:52:24;;;;;;;30.50;21.95;;;0.10;99.90;;;;;;5044677;28;20033;-71
2022/04/02 00:54:51;;;;;;;;;;;0.10;99.90;;;;;;5053619;28;20023;-71
2022/04/02 00:57:17;;;;;;;30.05;22.08;;;0.10;99.90;;;;;;5044682;28;19920;-71
2022/04/02 00:59:43;;;;;;;31.50;22.73;;;0.00;99.90;;;;;;5033755;28;20030;-71
2022/04/02 01:02:09;;;;;;;30.73;22.38;;;0.00;99.90;;;;;;5046279;28;20040;-71
2022/04/02 01:04:34;;;;;;;33.72;21.77;;;0.00;99.90;;;;;;5053324;28;20021;-71
2022/04/02 01:07:01;;;;;;;28.30;20.40;;;0.00;99.90;;;;;;5051829;28;20040;-72
2022/04/02 01:09:27;;;;;;;31.50;21.40;;;0.10;99.90;;;;;;5033577;28;20033;-71
2022/04/02 01:11:54;;;;;;;31.48;21.92;;;0.00;99.90;;;;;;5037511;28;20041;-71
2022/04/02 01:14:20;;;;;;;31.13;21.15;;;0.10;99.90;;;;;;5031489;28;20029;-71
2022/04/02 01:16:46;;;;;;;33.90;21.42;;;0.10;99.90;;;;;;5032229;28;20033;-74
2022/04/02 01:19:11;;;;;;;29.77;21.48;;;0.00;99.90;;;;;;5031872;28;20036;-72
2022/04/02 01:21:37;;;;;;;32.13;21.30;;;0.10;99.90;;;;;;5040564;28;20146;-71
2022/04/02 01:24:04;;;;;;;30.27;21.35;;;0.10;99.90;;;;;;5051649;28;20144;-71
2022/04/02 01:26:30;;;;;;;26.05;19.73;;;0.20;99.90;;;;;;5046847;28;20022;-72
2022/04/02 01:28:57;;;;;;;33.90;21.95;;;0.20;99.90;;;;;;5048083;28;20049;-71
2022/04/02 01:31:24;;;;;;;28.33;20.50;;;0.20;99.90;;;;;;5052691;28;20028;-71
2022/04/02 01:33:51;;;;;;;28.67;19.90;;;0.20;99.90;;;;;;5051362;28;20028;-71
2022/04/02 01:36:17;;;;;;;27.60;19.15;;;0.20;99.90;;;;;;5042781;28;20081;-71
2022/04/02 01:38:44;;;;;;;29.00;19.77;;;0.20;99.90;;;;;;5032358;28;20033;-71
2022/04/02 01:41:10;;;;;;;30.02;20.08;;;0.30;99.90;;;;;;5033217;28;20029;-72
2022/04/02 01:43:35;;;;;;;28.52;19.55;;;0.30;99.90;;;;;;5051099;28;20078;-71
2022/04/02 01:46:03;;;;;;;27.92;19.60;;;0.30;99.90;;;;;;5035399;28;20029;-71
2022/04/02 01:48:30;;;;;;;28.35;19.55;;;0.30;99.90;;;;;;5032375;28;20041;-71
2022/04/02 01:50:56;;;;;;;28.95;19.63;;;0.30;99.90;;;;;;5029946;28;20102;-72
2022/04/02 01:53:23;;;;;;;25.85;18.40;;;0.30;99.90;;;;;;5034939;28;20044;-72
2022/04/02 01:55:49;;;;;;;24.08;19.20;;;0.30;99.90;;;;;;5031452;28;20036;-72
2022/04/02 01:58:15;;;;;;;28.90;19.10;;;0.20;99.90;;;;;;5031553;28;20025;-71
2022/04/02 02:00:41;;;;;;;27.92;18.65;;;0.30;99.90;;;;;;5032693;28;20044;-72
2022/04/02 02:03:07;;;;;;;27.52;19.27;;;0.20;99.90;;;;;;5048331;28;20029;-70
2022/04/02 02:05:34;;;;;;;25.10;18.38;;;0.30;99.90;;;;;;5051857;28;20032;-70
2022/04/02 02:08:00;;;;;;;24.92;18.00;;;0.30;99.90;;;;;;5048026;28;20029;-70
2022/04/02 02:10:25;;;;;;;21.77;16.38;;;0.30;99.90;;;;;;5031115;28;20079;-70
2022/04/02 02:12:51;;;;;;;25.15;18.13;;;0.30;99.90;;;;;;5048689;28;20420;-71
2022/04/02 02:15:17;;;;;;;26.45;18.02;;;0.30;99.90;;;;;;5052182;28;20028;-71
2022/04/02 02:17:47;;;;;;;25.48;17.58;;;0.30;99.90;;;;;;5036076;28;20084;-71
2022/04/02 02:20:14;;;;;;;24.42;17.45;;;0.30;99.90;;;;;;5032163;28;20466;-71
2022/04/02 02:22:41;;;;;;;24.58;18.20;;;0.30;99.90;;;;;;5047389;28;20082;-71
2022/04/02 02:25:08;;;;;;;24.70;17.45;;;0.20;99.90;;;;;;5040721;28;20038;-71
2022/04/02 02:27:34;;;;;;;21.70;16.23;;;0.20;99.90;;;;;;5032598;28;20044;-71
2022/04/02 02:30:00;;;;;;;25.10;16.55;;;0.30;99.90;;;;;;5032128;28;20045;-71
2022/04/02 02:32:26;;;;;;;25.55;17.90;;;0.20;99.90;;;;;;5044499;28;20039;-71
2022/04/02 02:37:37;;;;;;;24.25;16.20;;;0.20;99.90;;;;;;5052375;28;20036;-71
2022/04/02 02:40:04;;;;;;;22.45;17.08;;;0.30;99.90;;;;;;5049953;28;20474;-71
2022/04/02 02:42:31;;;;;;;23.35;17.05;;;0.30;99.90;;;;;;5031999;28;20021;-70
2022/04/02 02:44:57;;;;;;;27.55;16.27;;;0.30;99.90;;;;;;5031590;28;20036;-70
2022/04/02 02:47:23;;;;;;;21.00;15.32;;;0.30;99.90;;;;;;5030784;28;20044;-70
2022/04/02 02:49:49;;;;;;;23.58;15.43;;;0.30;99.90;;;;;;5030048;28;20046;-73
2022/04/02 02:52:14;;;;;;;24.63;15.68;;;0.30;99.90;;;;;;5041057;28;20476;-70
2022/04/02 02:54:40;;;;;;;21.95;16.13;;;0.30;99.90;;;;;;5051621;28;20052;-70
2022/04/02 02:57:07;;;;;;;28.10;15.63;;;0.30;99.90;;;;;;5040927;28;20029;-72
2022/04/02 02:59:34;;;;;;;21.42;15.40;;;0.30;99.90;;;;;;5050365;28;20025;-70
2022/04/02 03:02:00;;;;;;;21.98;14.30;;;0.30;99.90;;;;;;5035987;28;20033;-70
2022/04/02 03:04:25;;;;;;;23.58;13.98;;;0.40;99.90;;;;;;5032470;28;20416;-70
2022/04/02 03:06:51;;;;;;;25.60;14.02;;;0.40;99.90;;;;;;5041662;28;20107;-73
2022/04/02 03:09:17;;;;;;;19.95;14.05;;;0.40;99.90;;;;;;5048773;28;20116;-71
2022/04/02 03:11:43;;;;;;;21.42;14.15;;;0.40;99.90;;;;;;5037936;28;20033;-70
2022/04/02 03:14:09;;;;;;;18.58;12.90;;;0.30;99.90;;;;;;5036936;28;20464;-70
2022/04/02 03:16:35;;;;;;;17.83;12.68;;;0.30;99.90;;;;;;5040181;28;20124;-70
2022/04/02 03:19:02;;;;;;;19.92;12.25;;;0.30;99.90;;;;;;5035340;28;20032;-71
2022/04/02 03:21:28;;;;;;;20.38;12.73;;;0.30;99.90;;;;;;5037410;28;20071;-71
2022/04/02 03:23:54;;;;;;;18.15;12.82;;;0.30;99.90;;;;;;5044068;28;20029;-71
2022/04/02 03:26:21;;;;;;;25.67;14.73;;;0.30;99.90;;;;;;5054306;28;20032;-71
2022/04/02 03:28:46;;;;;;;19.65;12.95;;;0.30;99.90;;;;;;5054320;28;20052;-71
2022/04/02 03:31:13;;;;;;;21.95;12.27;;;0.30;99.90;;;;;;5044178;28;20033;-71
2022/04/02 03:33:38;;;;;;;26.17;14.45;;;0.20;99.90;;;;;;5038702;28;20033;-71
2022/04/02 03:36:04;;;;;;;20.40;13.10;;;0.20;99.90;;;;;;5052379;28;20043;-71
2022/04/02 03:38:30;;;;;;;21.40;13.15;;;0.20;99.90;;;;;;5054404;28;20040;-72
2022/04/02 03:40:56;;;;;;;22.70;12.88;;;0.20;99.90;;;;;;5033241;28;20026;-72
2022/04/02 03:43:22;;;;;;;22.40;13.27;;;0.20;99.90;;;;;;5034158;28;20029;-71
2022/04/02 03:45:48;;;;;;;23.60;12.27;;;0.10;99.90;;;;;;5040689;28;20083;-72
2022/04/02 03:48:13;;;;;;;25.73;12.23;;;0.10;99.90;;;;;;5044340;28;20040;-71
2022/04/02 03:50:39;;;;;;;17.65;10.60;;;0.00;99.90;;;;;;5052643;28;20432;-72
2022/04/02 03:53:05;;;;;;;27.90;12.18;;;0.00;99.90;;;;;;5038595;28;20025;-71
2022/04/02 03:55:31;;;;;;;26.48;11.82;;;0.00;99.90;;;;;;5035079;28;20481;-72
2022/04/02 03:57:56;;;;;;;17.85;11.32;;;0.00;99.90;;;;;;5033720;28;20041;-72
2022/04/02 04:00:22;;;;;;;18.92;11.63;;;0.00;99.90;;;;;;5033856;28;20090;-72
2022/04/02 04:02:48;;;;;;;16.20;9.70;;;-0.10;99.90;;;;;;5049269;28;20117;-72
2022/04/02 04:05:14;;;;;;;25.33;11.38;;;-0.10;99.90;;;;;;5053103;28;20104;-71
2022/04/02 04:07:40;;;;;;;24.52;10.52;;;0.00;99.90;;;;;;5054071;28;20552;-71
2022/04/02 04:10:06;;;;;;;18.20;10.75;;;-0.10;99.90;;;;;;5052691;28;20025;-71
2022/04/02 04:12:32;;;;;;;19.80;10.60;;;-0.10;99.90;;;;;;5054173;28;20090;-71
2022/04/02 04:14:57;;;;;;;21.42;10.88;;;-0.10;99.90;;;;;;5052595;28;20459;-71
2022/04/02 04:17:23;;;;;;;17.38;10.15;;;-0.10;99.90;;;;;;5053742;28;20029;-71
2022/04/02 04:19:50;;;;;;;22.73;10.18;;;0.00;99.90;;;;;;5048343;28;20048;-73
2022/04/02 04:22:18;;;;;;;23.73;10.05;;;0.00;99.90;;;;;;5032283;28;20022;-72
2022/04/02 04:24:43;;;;;;;18.27;10.35;;;0.00;99.90;;;;;;5034168;28;20378;-71
2022/04/02 04:27:09;;;;;;;17.90;10.43;;;0.00;99.90;;;;;;5033556;28;20032;-72
2022/04/02 04:29:36;;;;;;;16.45;9.85;;;-0.10;99.90;;;;;;5034672;28;20032;-71
2022/04/02 04:32:02;;;;;;;24.23;10.20;;;-0.10;99.90;;;;;;5032894;28;20049;-71
2022/04/02 04:34:28;;;;;;;21.73;11.07;;;-0.10;99.90;;;;;;5032558;28;20025;-71
2022/04/02 04:36:53;;;;;;;17.02;10.00;;;-0.10;99.90;;;;;;5033626;28;20362;-73
2022/04/02 04:39:19;;;;;;;21.33;11.45;;;-0.10;99.90;;;;;;5033706;28;20034;-71
2022/04/02 04:41:45;;;;;;;20.35;11.27;;;-0.20;99.90;;;;;;5054036;28;20374;-71
2022/04/02 04:44:10;;;;;;;19.63;11.88;;;-0.10;99.90;;;;;;5049046;28;20030;-71
2022/04/02 04:46:36;;;;;;;24.50;11.35;;;-0.20;99.90;;;;;;5044638;28;20025;-71
2022/04/02 04:49:02;;;;;;;24.33;12.05;;;-0.20;99.90;;;;;;5051659;28;20529;-71
2022/04/02 04:51:28;;;;;;;27.50;14.02;;;-0.30;99.90;;;;;;5046260;28;20048;-71
2022/04/02 04:53:54;;;;;;;19.85;13.27;;;-0.20;99.90;;;;;;5033104;28;20383;-73
2022/04/02 04:56:20;;;;;;;27.95;14.93;;;-0.20;99.90;;;;;;5033676;28;20021;-71
2022/04/02 04:58:46;;;;;;;22.45;14.18;;;-0.20;99.90;;;;;;5039988;28;20045;-71
2022/04/02 05:01:13;;;;;;;23.23;15.07;;;-0.10;99.90;;;;;;5042545;28;20057;-71
2022/04/02 05:03:39;;;;;;;21.10;14.52;;;-0.20;99.90;;;;;;5044271;28;20028;-70
2022/04/02 05:06:09;;;;;;;24.00;15.73;;;-0.20;99.90;;;;;;5052792;28;20417;-71
2022/04/02 05:08:35;;;;;;;24.92;15.95;;;-0.30;99.90;;;;;;5051300;28;20386;-71
2022/04/02 05:11:01;;;;;;;22.60;13.63;;;-0.20;99.90;;;;;;5052174;28;20474;-71
2022/04/02 05:13:28;;;;;;;22.95;15.23;;;-0.20;99.90;;;;;;5053082;28;20033;-71
2022/04/02 05:15:54;;;;;;;22.13;15.60;;;-0.20;99.90;;;;;;5035342;28;20458;-72
2022/04/02 05:18:20;;;;;;;23.70;15.60;;;-0.20;99.90;;;;;;5052247;28;20040;-71
2022/04/02 05:20:46;;;;;;;23.40;15.07;;;-0.20;99.90;;;;;;5060638;28;20037;-71
2022/04/02 05:23:11;;;;;;;22.02;15.82;;;-0.20;99.90;;;;;;5056537;28;20434;-72
2022/04/02 05:25:38;;;;;;;21.35;14.73;;;-0.20;99.90;;;;;;5052748;28;20029;-71
2022/04/02 05:28:05;;;;;;;20.90;13.85;;;-0.20;99.90;;;;;;5049165;28;20042;-71
2022/04/02 05:30:35;;;;;;;19.10;13.80;;;-0.30;99.90;;;;;;5043189;28;20442;-72
2022/04/02 05:33:01;;;;;;;23.05;15.07;;;-0.20;99.90;;;;;;5040098;28;20030;-70
2022/04/02 05:35:27;;;;;;;23.23;14.45;;;-0.20;99.90;;;;;;5033122;28;20037;-71
2022/04/02 05:37:53;;;;;;;20.30;13.85;;;-0.30;99.90;;;;;;5051383;28;20107;-72
2022/04/02 05:40:18;;;;;;;22.48;14.27;;;-0.20;99.90;;;;;;5045838;28;20053;-71
2022/04/02 05:42:45;;;;;;;17.70;13.32;;;-0.20;99.90;;;;;;5035300;28;20029;-71
2022/04/02 05:45:11;;;;;;;18.42;12.52;;;-0.20;99.90;;;;;;5040871;28;20104;-71
2022/04/02 05:47:49;;;;;;;20.00;14.10;;;-0.20;99.90;;;;;;5051768;28;20116;-71
2022/04/02 05:50:16;;;;;;;16.55;13.40;;;-0.20;99.90;;;;;;5051115;28;20075;-71
2022/04/02 05:52:41;;;;;;;17.40;13.02;;;-0.20;99.90;;;;;;5037954;28;20045;-70
2022/04/02 05:55:08;;;;;;;16.75;12.65;;;-0.20;99.90;;;;;;5030830;28;20030;-70
2022/04/02 05:57:36;;;;;;;19.33;12.80;;;-0.20;99.90;;;;;;5032417;28;20025;-71
2022/04/02 06:00:04;;;;;;;18.27;12.63;;;-0.20;99.90;;;;;;5038388;28;20033;-70
2022/04/02 06:02:31;;;;;;;18.95;12.57;;;-0.20;99.90;;;;;;5050350;28;20036;-70
2022/04/02 06:04:57;;;;;;;18.40;13.10;;;-0.30;99.90;;;;;;5050689;28;20032;-72
2022/04/02 06:07:23;;;;;;;17.60;13.18;;;-0.20;99.90;;;;;;5038378;28;20370;-70
2022/04/02 06:09:48;;;;;;;16.20;12.43;;;-0.20;99.90;;;;;;5041716;28;20123;-70
2022/04/02 06:12:14;;;;;;;22.25;13.38;;;-0.20;99.90;;;;;;5040737;28;20108;-70
2022/04/02 06:14:39;;;;;;;20.45;12.38;;;-0.20;99.90;;;;;;5039375;28;20034;-71
2022/04/02 06:17:05;;;;;;;17.33;11.48;;;-0.10;99.90;;;;;;5040291;28;20029;-71
2022/04/02 06:19:31;;;;;;;15.07;10.82;;;-0.10;99.90;;;;;;5039325;28;20021;-71
2022/04/02 06:21:57;;;;;;;15.52;11.25;;;-0.10;99.90;;;;;;5040241;28;20048;-71
2022/04/02 06:24:23;;;;;;;16.10;11.32;;;-0.10;99.90;;;;;;5037131;28;20026;-70
2022/04/02 06:26:48;;;;;;;14.50;10.63;;;-0.10;99.90;;;;;;5042478;28;20080;-71
2022/04/02 06:29:14;;;;;;;13.73;9.82;;;0.00;99.90;;;;;;5037764;28;20608;-71
2022/04/02 06:31:40;;;;;;;14.50;9.90;;;0.00;99.90;;;;;;5039818;28;20018;-71
2022/04/02 06:34:05;;;;;;;14.48;10.07;;;0.00;99.90;;;;;;5041278;28;20152;-70
2022/04/02 06:36:31;;;;;;;14.20;10.23;;;0.00;99.90;;;;;;5039412;28;20378;-70
2022/04/02 06:38:57;;;;;;;14.85;10.75;;;0.00;99.90;;;;;;5037113;28;20087;-71
2022/04/02 06:41:23;;;;;;;14.35;9.63;;;0.00;99.90;;;;;;5040110;28;20093;-70
2022/04/02 06:43:49;;;;;;;13.15;9.77;;;0.10;99.90;;;;;;5047870;28;20116;-70
2022/04/02 06:46:15;;;;;;;12.98;9.75;;;0.10;99.90;;;;;;5043281;28;20091;-70
2022/04/02 06:48:40;;;;;;;13.98;9.63;;;0.10;99.90;;;;;;5044503;28;20036;-71
2022/04/02 06:51:09;;;;;;;11.30;8.45;;;0.10;99.90;;;;;;5043498;28;20052;-70
2022/04/02 06:53:35;;;;;;;12.52;8.80;;;0.10;99.90;;;;;;5045793;28;20029;-70
2022/04/02 06:56:02;;;;;;;15.25;10.23;;;0.10;99.90;;;;;;5044846;28;20028;-71
2022/04/02 06:58:34;;;;;;;10.82;8.85;;;0.10;99.90;;;;;;5044641;28;20037;-71
2022/04/02 07:01:00;;;;;;;12.80;9.70;;;0.10;99.90;;;;;;5051729;28;20092;-71
2022/04/02 07:03:25;;;;;;;11.38;8.57;;;0.20;99.90;;;;;;5049447;28;20056;-71
2022/04/02 07:05:51;;;;;;;17.15;8.80;;;0.20;99.90;;;;;;5042714;28;20398;-72
2022/04/02 07:08:18;;;;;;;11.00;9.07;;;0.20;99.90;;;;;;5050106;28;20102;-73
2022/04/02 07:10:43;;;;;;;13.35;9.52;;;0.20;99.90;;;;;;5054699;28;20033;-70
2022/04/02 07:13:09;;;;;;;10.52;8.77;;;0.20;99.90;;;;;;5053757;28;20021;-69
2022/04/02 07:15:35;;;;;;;13.10;9.88;;;0.20;99.90;;;;;;5040055;28;20524;-69
2022/04/02 07:18:06;;;;;;;13.82;9.48;;;0.10;99.90;;;;;;5048549;28;20033;-69
2022/04/02 07:20:38;;;;;;;11.70;9.20;;;0.10;99.90;;;;;;5034618;28;20482;-69
2022/04/02 07:23:05;;;;;;;18.85;9.48;;;0.10;99.90;;;;;;5034237;28;20071;-70
2022/04/02 07:25:31;;;;;;;18.35;10.07;;;0.20;99.90;;;;;;5036369;28;20047;-71
2022/04/02 07:27:58;;;;;;;14.38;10.00;;;0.10;99.90;;;;;;5050605;28;20036;-72
2022/04/02 07:30:25;;;;;;;13.82;9.35;;;0.10;99.90;;;;;;5055037;28;20033;-70
2022/04/02 07:32:51;;;;;;;16.17;10.18;;;0.10;99.90;;;;;;5037784;28;20033;-71
2022/04/02 07:35:17;;;;;;;18.50;9.88;;;0.10;99.90;;;;;;5042351;28;20029;-72
2022/04/02 07:38:02;;;;;;;14.98;10.40;;;0.10;99.90;;;;;;5042888;28;20078;-72
2022/04/02 07:40:40;;;;;;;12.85;10.15;;;0.10;99.90;;;;;;5034890;28;20590;-72
2022/04/02 07:43:20;;;;;;;14.40;11.02;;;0.10;99.90;;;;;;5042452;28;20029;-72
2022/04/02 07:45:51;;;;;;;13.90;10.82;;;0.10;99.90;;;;;;5042214;28;20025;-73
2022/04/02 07:48:18;;;;;;;13.25;10.13;;;0.10;99.90;;;;;;5050244;28;20084;-71
2022/04/02 07:50:46;;;;;;;13.98;9.48;;;0.10;99.90;;;;;;5052822;28;20562;-74
2022/04/02 07:53:23;;;;;;;19.25;10.35;;;0.00;99.90;;;;;;5052558;28;20021;-79
2022/04/02 07:56:03;;;;;;;11.80;9.10;;;0.00;99.90;;;;;;5057662;28;20359;-73
2022/04/02 07:58:32;;;;;;;12.25;9.07;;;0.00;99.90;;;;;;5039292;28;20083;-72
2022/04/02 08:01:01;;;;;;;14.40;9.25;;;0.00;99.90;;;;;;5046951;28;20090;-72
2022/04/02 08:03:29;;;;;;;12.45;8.98;;;0.00;99.90;;;;;;5043844;28;20037;-72
2022/04/02 08:05:55;;;;;;;14.88;8.63;;;0.00;99.90;;;;;;5041455;28;20069;-72
2022/04/02 08:08:24;;;;;;;11.23;9.05;;;0.00;99.90;;;;;;5043876;28;20144;-72
2022/04/02 08:10:52;;;;;;;16.73;9.82;;;0.00;99.90;;;;;;5043532;28;20028;-72
2022/04/02 08:13:19;;;;;;;14.77;10.63;;;0.00;99.90;;;;;;5040754;28;20109;-71
2022/04/02 08:15:45;;;;;;;12.05;8.80;;;0.10;99.90;;;;;;5041734;28;20489;-71
2022/04/02 08:18:13;;;;;;;12.30;8.73;;;0.10;99.90;;;;;;5043133;28;20041;-72
2022/04/02 08:20:39;;;;;;;13.48;9.05;;;0.10;99.90;;;;;;5040662;28;20029;-71
2022/04/02 08:23:05;;;;;;;12.93;8.25;;;0.10;99.90;;;;;;5044311;28;20064;-71
2022/04/02 08:25:34;;;;;;;11.13;8.20;;;0.10;99.90;;;;;;5042798;28;20059;-72
2022/04/02 08:28:10;;;;;;;10.88;7.32;;;0.20;99.90;;;;;;5046395;28;20053;-73
2022/04/02 08:30:47;;;;;;;13.10;8.27;;;0.10;99.90;;;;;;5052266;28;20037;-72
2022/04/02 08:33:49;;;;;;;11.60;8.40;;;0.10;99.90;;;;;;5036292;28;20024;-71
2022/04/02 08:36:34;;;;;;;12.63;8.90;;;-0.10;99.90;;;;;;5030842;28;20034;-73
2022/04/02 08:39:08;;;;;;;14.45;9.05;;;-0.10;99.90;;;;;;5045027;28;20392;-75
2022/04/02 08:42:11;;;;;;;15.13;9.20;;;-0.10;99.90;;;;;;5059006;28;20025;-74
2022/04/02 08:45:05;;;;;;;12.45;9.23;;;0.00;99.90;;;;;;5053747;28;20025;-71
2022/04/02 08:47:43;;;;;;;12.02;8.20;;;0.00;99.90;;;;;;5036576;28;20064;-75
2022/04/02 08:50:12;;;;;;;11.05;8.90;;;-0.10;99.90;;;;;;5044707;28;20053;-73
2022/04/02 08:52:50;;;;;;;13.15;9.23;;;0.00;99.90;;;;;;5039015;28;20018;-73
2022/04/02 08:55:35;;;;;;;13.57;9.90;;;0.00;99.90;;;;;;5034950;28;20080;-77
2022/04/02 08:58:24;;;;;;;12.55;9.90;;;0.00;99.90;;;;;;5021144;28;20041;-73
2022/04/02 09:01:10;;;;;;;14.73;8.93;;;0.20;99.90;;;;;;5041314;28;20036;-75
2022/04/02 09:03:50;;;;;;;11.27;8.95;;;0.10;99.90;;;;;;5033028;28;20078;-70
2022/04/02 09:06:36;;;;;;;14.00;10.10;;;0.10;99.90;;;;;;5035212;28;20159;-72
2022/04/02 09:09:27;;;;;;;15.63;9.88;;;0.20;99.90;;;;;;5031510;28;20439;-71
2022/04/02 09:11:58;;;;;;;14.32;10.15;;;0.20;99.90;;;;;;5032878;28;20061;-75
2022/04/02 09:14:24;;;;;;;16.00;10.13;;;0.10;99.90;;;;;;5038785;28;20097;-77
2022/04/02 09:16:55;;;;;;;14.30;10.02;;;0.10;99.90;;;;;;5040750;28;20071;-75
2022/04/02 09:19:40;;;;;;;15.23;11.20;;;0.10;99.90;;;;;;5039225;28;20052;-75
2022/04/02 09:22:14;;;;;;;16.13;11.85;;;0.20;99.90;;;;;;5038750;28;20091;-72
2022/04/02 09:24:58;;;;;;;14.80;10.27;;;0.10;99.90;;;;;;5042166;28;20026;-75
2022/04/02 09:28:31;;;;;;;16.25;11.55;;;0.10;99.90;;;;;;5031213;28;20029;-76
2022/04/02 09:31:42;;;;;;;15.65;11.40;;;0.00;99.90;;;;;;4947619;28;20039;-78
2022/04/02 09:34:57;;;;;;;18.77;12.25;;;0.10;99.90;;;;;;5046893;28;20037;-79
2022/04/02 09:37:35;;;;;;;13.70;10.13;;;0.10;99.90;;;;;;4971322;28;20038;-83
2022/04/02 09:40:05;;;;;;;14.52;10.32;;;0.00;99.90;;;;;;5052341;28;20169;-77
2022/04/02 09:42:43;;;;;;;19.50;12.13;;;-0.10;99.90;;;;;;5037414;28;20026;-78
2022/04/02 09:45:22;;;;;;;16.40;11.00;;;0.00;99.90;;;;;;5050363;28;20022;-77
2022/04/02 09:47:47;;;;;;;15.88;11.30;;;0.00;99.90;;;;;;5048696;28;20098;-77
2022/04/02 09:50:16;;;;;;;16.95;11.45;;;0.10;99.90;;;;;;5056500;28;20053;-79
2022/04/02 09:53:12;;;;;;;19.17;10.77;;;0.10;99.90;;;;;;5052207;28;20029;-74
2022/04/02 09:56:09;;;;;;;16.60;11.32;;;0.20;99.90;;;;;;5050653;28;20025;-74
2022/04/02 09:59:11;;;;;;;14.18;9.57;;;0.10;99.90;;;;;;5051002;28;20032;-77
2022/04/02 10:01:58;;;;;;;16.13;10.88;;;0.10;99.90;;;;;;5041611;28;20029;-74
2022/04/02 10:04:46;;;;;;;17.38;11.20;;;0.10;99.90;;;;;;5041784;28;20033;-74
2022/04/02 10:07:41;;;;;;;22.90;13.23;;;0.20;99.90;;;;;;5050883;28;20028;-75
2022/04/02 10:10:08;;;;;;;18.65;12.57;;;0.30;99.90;;;;;;5050422;28;20035;-76
2022/04/02 10:12:37;;;;;;;14.95;11.52;;;0.40;99.90;;;;;;5051115;28;20462;-76
2022/04/02 10:15:03;;;;;;;14.15;10.50;;;0.40;99.90;;;;;;5051400;28;20383;-75
2022/04/02 10:17:31;;;;;;;16.13;11.20;;;0.40;99.90;;;;;;5053052;28;20051;-76
2022/04/02 10:19:59;;;;;;;24.17;12.77;;;0.30;99.90;;;;;;5050033;28;20435;-75
2022/04/02 10:22:43;;;;;;;18.83;11.95;;;0.30;99.90;;;;;;5035123;28;20032;-75
2022/04/02 10:25:11;;;;;;;18.27;12.23;;;0.30;99.90;;;;;;5036562;28;20532;-74
2022/04/02 10:27:38;;;;;;;19.15;11.88;;;0.40;99.90;;;;;;5055128;28;20029;-77
2022/04/02 10:30:09;;;;;;;15.27;11.52;;;0.40;99.90;;;;;;5054395;28;20406;-73
2022/04/02 10:33:46;;;;;;;13.23;10.43;;;0.40;99.90;;;;;;5056276;28;20033;-75
2022/04/02 10:35:49;;;;;;;14.95;10.38;;;0.30;99.90;;;;;;5039116;28;20099;-76
2022/04/02 10:38:33;;;;;;;13.75;9.43;;;0.30;99.90;;;;;;5060913;28;20113;-73
2022/04/02 10:41:13;;;;;;;18.98;11.80;;;0.20;99.90;;;;;;5059889;28;20056;-75
2022/04/02 10:43:59;;;;;;;;;;;0.10;99.90;;;;;;5051871;28;20026;-75
2022/04/02 10:46:26;;;;;;;16.10;11.82;;;0.20;99.90;;;;;;5056383;28;20047;-75
2022/04/02 10:49:00;;;;;;;17.15;11.85;;;0.40;99.90;;;;;;5036430;28;20160;-74
2022/04/02 10:51:31;;;;;;;17.85;11.57;;;0.50;99.90;;;;;;5035354;28;20243;-75
2022/04/02 10:54:07;;;;;;;15.65;10.35;;;0.60;99.90;;;;;;5043819;28;20025;-74
2022/04/02 10:56:44;;;;;;;18.27;10.88;;;0.60;99.90;;;;;;5053160;28;20044;-74
2022/04/02 10:59:12;;;;;;;15.20;9.88;;;0.60;99.90;;;;;;5053097;28;20060;-76
2022/04/02 11:01:43;;;;;;;12.43;10.02;;;0.60;99.90;;;;;;5042659;28;20041;-74
2022/04/02 11:04:17;;;;;;;15.55;10.05;;;0.60;99.90;;;;;;5034675;28;20022;-75
2022/04/02 11:06:49;;;;;;;15.68;9.65;;;0.50;99.90;;;;;;5034423;28;20075;-74
2022/04/02 11:09:41;;;;;;;13.98;10.82;;;0.30;99.90;;;;;;5043062;28;20112;-74
2022/04/02 11:12:14;;;;;;;14.10;10.65;;;0.20;99.90;;;;;;5052297;28;20478;-74
2022/04/02 11:14:49;;;;;;;15.00;10.38;;;0.20;99.90;;;;;;5054697;28;20021;-74
2022/04/02 11:17:37;;;;;;;16.45;11.35;;;0.20;99.90;;;;;;5052670;28;20040;-74
2022/04/02 11:20:06;;;;;;;16.95;11.18;;;0.10;99.90;;;;;;5052992;28;20025;-74
2022/04/02 11:22:48;;;;;;;15.18;11.57;;;0.30;99.90;;;;;;5035607;28;20026;-74
2022/04/02 11:25:17;;;;;;;17.13;11.95;;;0.30;99.90;;;;;;5039452;28;20033;-74
2022/04/02 11:27:47;;;;;;;17.73;12.45;;;0.30;99.90;;;;;;5034840;28;20061;-73
2022/04/02 11:30:13;;;;;;;;;;;0.30;99.90;;;;;;5033970;28;20033;-74
2022/04/02 11:32:43;;;;;;;21.10;12.55;;;0.40;99.90;;;;;;5034673;28;20266;-74
2022/04/02 11:35:29;;;;;;;16.98;11.70;;;0.70;99.90;;;;;;5034484;28;20064;-77
2022/04/02 11:38:32;;;;;;;20.40;12.40;;;1.00;99.90;;;;;;5034769;28;20371;-74
2022/04/02 11:41:21;;;;;;;14.80;11.52;;;1.30;99.90;;;;;;5037153;28;20519;-74
2022/04/02 11:43:47;;;;;;;15.82;11.27;;;1.40;99.90;;;;;;5053809;28;20347;-75
2022/04/02 11:46:17;;;;;;;15.15;12.05;;;1.30;99.90;;;;;;5034562;28;20490;-75
2022/04/02 11:48:51;;;;;;;17.00;12.30;;;1.20;99.90;;;;;;5034650;28;20033;-75
2022/04/02 11:51:26;;;;;;;17.58;12.43;;;0.90;99.90;;;;;;5042103;28;20056;-74
2022/04/02 11:53:52;;;;;;;20.38;13.40;;;0.80;99.90;;;;;;5053720;28;20035;-76
2022/04/02 11:56:29;;;;;;;17.13;13.10;;;0.60;99.90;;;;;;5053334;28;20378;-74
2022/04/02 11:59:00;;;;;;;17.38;12.82;;;0.50;99.90;;;;;;5054515;28;20082;-74
2022/04/02 12:01:39;;;;;;;21.65;14.20;;;0.50;99.90;;;;;;5053753;28;20032;-73
2022/04/02 12:04:07;;;;;;;21.30;14.27;;;0.50;99.90;;;;;;5042909;28;20053;-73
2022/04/02 12:06:36;;;;;;;19.25;12.82;;;0.60;99.90;;;;;;5036185;28;20117;-72
2022/04/02 12:09:24;;;;;;;18.17;12.93;;;0.70;99.90;;;;;;5036670;28;20037;-73
2022/04/02 12:11:57;;;;;;;18.50;13.52;;;0.60;99.90;;;;;;5049617;28;20035;-73
2022/04/02 12:14:27;;;;;;;18.38;13.50;;;0.60;99.90;;;;;;5039317;28;20026;-74
2022/04/02 12:17:19;;;;;;;20.08;13.60;;;0.50;99.90;;;;;;5048809;28;20116;-74
2022/04/02 12:19:53;;;;;;;19.75;13.75;;;0.40;99.90;;;;;;5040413;28;20045;-74
2022/04/02 12:22:25;;;;;;;20.58;13.73;;;0.40;99.90;;;;;;5032619;28;20352;-84
2022/04/02 12:24:53;;;;;;;21.10;14.27;;;0.30;99.90;;;;;;5033796;28;20038;-75
2022/04/02 12:27:21;;;;;;;19.48;13.90;;;0.30;99.90;;;;;;5032579;28;20464;-73
2022/04/02 12:29:48;;;;;;;20.65;15.75;;;0.20;99.90;;;;;;5034132;28;20068;-73
2022/04/02 12:32:38;;;;;;;20.10;14.23;;;0.30;99.90;;;;;;5051478;28;20029;-77
2022/04/02 12:35:06;;;;;;;22.15;15.73;;;0.30;99.90;;;;;;5052681;28;20480;-74
2022/04/02 12:37:43;;;;;;;26.45;17.60;;;0.30;99.90;;;;;;5039815;28;20486;-78
2022/04/02 12:40:20;;;;;;;21.75;15.02;;;0.30;99.90;;;;;;5041372;28;20033;-76
2022/04/02 12:42:47;;;;;;;23.20;16.90;;;0.30;99.90;;;;;;5048949;28;20033;-75
2022/04/02 12:45:16;;;;;;;21.45;15.40;;;0.30;99.90;;;;;;5050443;28;20017;-75
2022/04/02 12:47:57;;;;;;;22.50;16.58;;;0.30;99.90;;;;;;5054160;28;20178;-73
2022/04/02 12:50:23;;;;;;;21.25;15.75;;;0.40;99.90;;;;;;5045061;28;20051;-75
2022/04/02 12:52:50;;;;;;;22.08;17.40;;;0.30;99.90;;;;;;5052884;28;20029;-76
2022/04/02 12:55:19;;;;;;;25.10;16.90;;;0.30;99.90;;;;;;5051831;28;20052;-76
2022/04/02 12:58:00;;;;;;;23.08;15.27;;;0.30;99.90;;;;;;5052866;28;20039;-76
2022/04/02 13:00:27;;;;;;;21.20;14.93;;;0.40;99.90;;;;;;5035362;28;20091;-74